Terminal Aerodrome Forecast
Issued by NWS Milwaukee/Sullivan, WI

Home | Current Version | Previous Version | Text Only | Print | Product List | Glossary On
Versions: 1 2 3 4 5 6 7 8 9 10 11 12 13 14 15 16 17 18 19 20 21 22 23 24 25 26 27 28 29 30 31 32 33 34 35 36 37 38 39 40 41 42 43 44 45 46 47 48 49 50
050
FTUS43 KMKX 240109 AAE
TAFMKE
TAF AMD
KMKE 240109Z 2401/2506 13005KT P6SM -SHRA VCTS SCT050CB BKN090
      TEMPO 2401/2402 4SM -TSRA BR SCT025 OVC050CB
     FM240500 18004KT P6SM VCTS BKN050CB
     FM240900 20004KT P6SM -SHRA VCTS SCT035CB OVC050
     FM241200 21006KT 6SM BR OVC060
     FM250100 28006KT P6SM SCT120=

USA.gov is the U.S. government's official web portal to all federal, state and local government web resources and services.